Time;durP1;ratioP1;P1;durP2;ratioP2;P2;SDS_P1;SDS_P2;PMS_P1;PMS_P2;Temp;Humidity;BMP_temperature;BMP_pressure;BME280_temperature;BME280_humidity;BME280_pressure;Samples;Min_cycle;Max_cycle;Signal;HPM_P1;HPM_P2
2022/10/08 00:00:46;;;;;;;10.37;5.57;;;;;;;;;;5034197;28;20774;-52
2022/10/08 00:03:14;;;;;;;10.73;5.53;;;;;;;;;;5042762;28;20287;-54
2022/10/08 00:05:41;;;;;;;11.07;5.57;;;;;;;;;;5046590;28;20197;-53
2022/10/08 00:08:08;;;;;;;11.37;5.90;;;;;;;;;;5047330;28;20219;-51
2022/10/08 00:10:35;;;;;;;11.10;5.77;;;;;;;;;;5025624;28;20305;-53
2022/10/08 00:13:03;;;;;;;10.53;5.10;;;;;;;;;;5046348;28;20239;-51
2022/10/08 00:15:29;;;;;;;11.00;5.13;;;;;;;;;;5049373;28;20293;-55
2022/10/08 00:17:55;;;;;;;10.93;5.57;;;;;;;;;;5038951;28;20290;-53
2022/10/08 00:20:22;;;;;;;10.57;5.33;;;;;;;;;;5044787;28;20230;-52
2022/10/08 00:22:48;;;;;;;11.47;5.43;;;;;;;;;;5046691;28;20767;-56
2022/10/08 00:25:15;;;;;;;10.30;5.53;;;;;;;;;;5044758;28;20210;-54
2022/10/08 00:27:41;;;;;;;11.10;5.33;;;;;;;;;;5039266;28;20310;-52
2022/10/08 00:30:08;;;;;;;9.97;5.00;;;;;;;;;;5043440;28;20222;-51
2022/10/08 00:32:34;;;;;;;11.13;5.47;;;;;;;;;;5040412;28;20266;-51
2022/10/08 00:35:01;;;;;;;9.53;5.20;;;;;;;;;;5044483;28;20706;-51
2022/10/08 00:37:27;;;;;;;12.17;5.83;;;;;;;;;;5048111;28;20245;-55
2022/10/08 00:39:53;;;;;;;11.90;5.30;;;;;;;;;;5040436;28;20250;-55
2022/10/08 00:42:20;;;;;;;10.13;5.03;;;;;;;;;;5035932;28;20635;-56
2022/10/08 00:44:50;;;;;;;13.10;5.17;;;;;;;;;;5059468;28;20218;-55
2022/10/08 00:47:18;;;;;;;9.90;4.87;;;;;;;;;;5044493;28;20315;-55
2022/10/08 00:49:47;;;;;;;9.60;5.07;;;;;;;;;;5047841;28;20618;-54
2022/10/08 00:52:14;;;;;;;10.27;5.17;;;;;;;;;;5038965;28;20191;-54
2022/10/08 00:54:41;;;;;;;10.70;4.80;;;;;;;;;;5047542;28;20281;-55
2022/10/08 00:57:08;;;;;;;10.57;5.13;;;;;;;;;;5046055;28;20674;-53
2022/10/08 00:59:36;;;;;;;8.87;4.97;;;;;;;;;;5038496;28;20549;-54
2022/10/08 01:02:03;;;;;;;9.90;5.03;;;;;;;;;;5035084;28;20290;-55
2022/10/08 01:04:30;;;;;;;9.73;5.57;;;;;;;;;;5047081;28;20222;-55
2022/10/08 01:07:11;;;;;;;8.10;4.70;;;;;;;;;;5043319;28;20306;-55
2022/10/08 01:09:45;;;;;;;8.67;4.57;;;;;;;;;;5056946;28;20281;-55
2022/10/08 01:12:30;;;;;;;8.97;4.37;;;;;;;;;;5043826;28;20226;-53
2022/10/08 01:15:00;;;;;;;11.23;4.53;;;;;;;;;;5035896;28;20634;-55
2022/10/08 01:17:47;;;;;;;8.80;4.77;;;;;;;;;;5038615;28;20567;-55
2022/10/08 01:20:31;;;;;;;8.80;4.50;;;;;;;;;;5041866;28;20230;-54
2022/10/08 01:23:37;;;;;;;7.50;4.30;;;;;;;;;;5036444;28;20741;-54
2022/10/08 01:26:18;;;;;;;7.70;4.43;;;;;;;;;;5036487;28;20290;-52
2022/10/08 01:29:16;;;;;;;8.27;4.30;;;;;;;;;;5043676;28;20237;-55
2022/10/08 01:31:49;;;;;;;7.83;4.43;;;;;;;;;;5038224;28;20241;-55
2022/10/08 01:34:22;;;;;;;9.40;4.50;;;;;;;;;;5046727;28;20254;-53
2022/10/08 01:36:49;;;;;;;10.00;4.83;;;;;;;;;;5037483;28;20882;-53
2022/10/08 01:39:19;;;;;;;8.30;4.13;;;;;;;;;;5038977;28;20274;-54
2022/10/08 01:41:50;;;;;;;9.10;4.20;;;;;;;;;;5043204;28;20755;-54
2022/10/08 01:44:41;;;;;;;8.80;4.63;;;;;;;;;;5055703;28;20261;-56
2022/10/08 01:47:13;;;;;;;8.93;4.50;;;;;;;;;;5039039;28;20257;-56
2022/10/08 01:49:44;;;;;;;8.33;4.40;;;;;;;;;;5044487;28;20257;-54
2022/10/08 01:52:18;;;;;;;8.27;3.97;;;;;;;;;;5036385;28;20242;-54
2022/10/08 01:54:45;;;;;;;8.27;4.43;;;;;;;;;;5042996;28;20233;-54
2022/10/08 01:57:12;;;;;;;8.00;4.30;;;;;;;;;;5036688;28;20362;-55
2022/10/08 01:59:41;;;;;;;10.53;4.87;;;;;;;;;;5039622;28;20226;-56
2022/10/08 02:02:22;;;;;;;7.13;3.87;;;;;;;;;;5043537;28;20235;-55
2022/10/08 02:04:50;;;;;;;8.83;3.87;;;;;;;;;;5044825;28;20201;-55
2022/10/08 02:07:19;;;;;;;9.50;4.53;;;;;;;;;;5043171;28;20803;-55
2022/10/08 02:09:50;;;;;;;6.60;3.80;;;;;;;;;;5040146;28;20843;-56
2022/10/08 02:12:17;;;;;;;6.13;3.50;;;;;;;;;;5043686;28;20291;-55
2022/10/08 02:14:48;;;;;;;7.20;4.13;;;;;;;;;;5047826;28;20309;-55
2022/10/08 02:17:26;;;;;;;9.27;4.37;;;;;;;;;;5035246;28;20195;-54
2022/10/08 02:19:59;;;;;;;6.40;3.73;;;;;;;;;;5047188;28;20989;-56
2022/10/08 02:22:33;;;;;;;7.57;3.90;;;;;;;;;;5039635;28;20199;-53
2022/10/08 02:25:23;;;;;;;8.77;4.10;;;;;;;;;;5044516;28;20195;-54
2022/10/08 02:28:05;;;;;;;7.03;3.80;;;;;;;;;;5043307;28;20725;-55
2022/10/08 02:30:57;;;;;;;6.23;3.60;;;;;;;;;;5037669;28;20201;-51
2022/10/08 02:33:29;;;;;;;7.90;4.00;;;;;;;;;;5040377;28;20710;-54
2022/10/08 02:35:57;;;;;;;7.77;3.80;;;;;;;;;;5047830;28;20242;-54
2022/10/08 02:38:30;;;;;;;7.30;3.53;;;;;;;;;;5045000;28;20765;-52
2022/10/08 02:40:59;;;;;;;8.77;4.20;;;;;;;;;;5036551;28;20235;-55
2022/10/08 02:43:29;;;;;;;6.40;3.57;;;;;;;;;;5046472;28;20327;-56
2022/10/08 02:46:09;;;;;;;7.50;3.83;;;;;;;;;;5044704;28;20706;-55
2022/10/08 02:48:36;;;;;;;6.80;3.87;;;;;;;;;;5043446;28;20234;-52
2022/10/08 02:51:05;;;;;;;5.93;3.33;;;;;;;;;;5018931;28;20231;-53
2022/10/08 02:53:34;;;;;;;5.90;3.33;;;;;;;;;;5041425;28;20238;-55
2022/10/08 02:56:12;;;;;;;6.10;3.57;;;;;;;;;;5037129;28;20199;-54
2022/10/08 02:58:40;;;;;;;6.30;3.40;;;;;;;;;;5042747;28;20221;-54
2022/10/08 03:01:12;;;;;;;6.97;3.53;;;;;;;;;;5023339;28;20219;-54
2022/10/08 03:03:43;;;;;;;6.27;3.90;;;;;;;;;;5041087;28;20218;-54
2022/10/08 03:06:10;;;;;;;6.43;3.53;;;;;;;;;;5040376;28;20729;-53
2022/10/08 03:08:41;;;;;;;6.00;3.27;;;;;;;;;;5042189;28;20246;-54
2022/10/08 03:11:08;;;;;;;7.00;3.73;;;;;;;;;;5039571;28;20248;-52
2022/10/08 03:13:41;;;;;;;8.10;4.13;;;;;;;;;;5039878;28;20251;-54
2022/10/08 03:16:10;;;;;;;7.10;3.97;;;;;;;;;;5037994;28;20755;-54
2022/10/08 03:18:37;;;;;;;8.27;4.10;;;;;;;;;;5042722;28;20286;-55
2022/10/08 03:21:06;;;;;;;5.47;3.43;;;;;;;;;;5035728;28;20230;-55
2022/10/08 03:23:32;;;;;;;5.27;3.43;;;;;;;;;;5042755;28;20314;-54
2022/10/08 03:25:59;;;;;;;7.30;3.97;;;;;;;;;;5043270;28;20237;-52
2022/10/08 03:28:25;;;;;;;7.67;3.57;;;;;;;;;;5044144;28;20521;-54
2022/10/08 03:30:51;;;;;;;5.50;3.27;;;;;;;;;;5040480;28;20209;-54
2022/10/08 03:33:18;;;;;;;6.67;3.63;;;;;;;;;;5040883;28;20210;-55
2022/10/08 03:35:45;;;;;;;5.40;3.27;;;;;;;;;;5038121;28;20231;-52
2022/10/08 03:38:16;;;;;;;7.17;3.60;;;;;;;;;;5041662;28;20225;-53
2022/10/08 03:40:50;;;;;;;5.50;3.10;;;;;;;;;;5038610;28;20199;-55
2022/10/08 03:43:16;;;;;;;6.13;3.50;;;;;;;;;;5045754;28;20245;-54
2022/10/08 03:45:52;;;;;;;6.73;3.17;;;;;;;;;;5044908;28;20256;-55
2022/10/08 03:48:20;;;;;;;4.97;3.23;;;;;;;;;;5047807;28;20230;-55
2022/10/08 03:51:13;;;;;;;5.63;3.47;;;;;;;;;;5040937;28;20222;-55
2022/10/08 03:53:41;;;;;;;6.50;3.47;;;;;;;;;;5043491;28;20219;-54
2022/10/08 03:56:18;;;;;;;6.10;3.23;;;;;;;;;;5043935;28;20218;-55
2022/10/08 03:58:46;;;;;;;5.53;3.33;;;;;;;;;;5050330;28;20225;-51
2022/10/08 04:01:14;;;;;;;5.90;3.30;;;;;;;;;;5038279;28;20287;-51
2022/10/08 04:03:41;;;;;;;5.43;3.27;;;;;;;;;;5042250;28;20254;-52
2022/10/08 04:06:08;;;;;;;5.87;3.30;;;;;;;;;;5043528;28;20730;-54
2022/10/08 04:08:34;;;;;;;7.13;3.50;;;;;;;;;;5044508;28;20254;-55
2022/10/08 04:11:03;;;;;;;6.07;3.30;;;;;;;;;;5043663;28;20219;-54
2022/10/08 04:13:29;;;;;;;5.33;2.93;;;;;;;;;;5041158;28;20223;-51
2022/10/08 04:16:02;;;;;;;5.10;2.90;;;;;;;;;;5051134;28;20236;-53
2022/10/08 04:18:29;;;;;;;5.80;3.10;;;;;;;;;;5041704;28;20195;-55
2022/10/08 04:20:57;;;;;;;5.83;3.07;;;;;;;;;;5040880;28;20230;-53
2022/10/08 04:23:24;;;;;;;5.70;3.00;;;;;;;;;;5044765;28;20242;-55
2022/10/08 04:25:51;;;;;;;5.93;3.00;;;;;;;;;;5046186;28;20744;-53
2022/10/08 04:28:18;;;;;;;5.47;3.30;;;;;;;;;;5045053;28;20298;-52
2022/10/08 04:30:55;;;;;;;5.70;3.20;;;;;;;;;;5042012;28;20202;-52
2022/10/08 04:33:21;;;;;;;6.23;3.00;;;;;;;;;;5046360;28;20250;-55
2022/10/08 04:35:47;;;;;;;4.97;2.90;;;;;;;;;;5037543;28;20261;-54
2022/10/08 04:38:14;;;;;;;4.40;2.70;;;;;;;;;;5047109;28;20195;-55
2022/10/08 04:40:40;;;;;;;5.07;2.60;;;;;;;;;;5034920;28;20234;-51
2022/10/08 04:43:06;;;;;;;5.63;3.00;;;;;;;;;;5038966;28;20657;-51
2022/10/08 04:45:33;;;;;;;5.27;2.70;;;;;;;;;;5040838;28;20227;-53
2022/10/08 04:47:59;;;;;;;3.57;2.37;;;;;;;;;;5040623;28;20315;-51
2022/10/08 04:50:26;;;;;;;4.83;2.83;;;;;;;;;;5039437;28;20282;-51
2022/10/08 04:52:52;;;;;;;5.47;3.10;;;;;;;;;;5043321;28;20310;-56
2022/10/08 04:55:18;;;;;;;5.60;2.77;;;;;;;;;;5042887;28;20204;-53
2022/10/08 04:57:45;;;;;;;4.67;2.90;;;;;;;;;;5047580;28;20298;-54
2022/10/08 05:00:11;;;;;;;3.83;2.67;;;;;;;;;;5044709;28;20256;-52
2022/10/08 05:02:44;;;;;;;4.10;2.57;;;;;;;;;;5034666;28;20219;-51
2022/10/08 05:05:11;;;;;;;4.73;2.70;;;;;;;;;;5042465;28;20198;-56
2022/10/08 05:07:37;;;;;;;4.63;2.73;;;;;;;;;;5045376;28;20250;-54
2022/10/08 05:10:04;;;;;;;5.20;3.00;;;;;;;;;;5037513;28;20222;-52
2022/10/08 05:12:30;;;;;;;4.30;2.80;;;;;;;;;;5039513;28;20204;-53
2022/10/08 05:14:56;;;;;;;6.40;2.90;;;;;;;;;;5039463;28;20251;-53
2022/10/08 05:17:23;;;;;;;4.33;2.90;;;;;;;;;;5039542;28;20218;-52
2022/10/08 05:19:49;;;;;;;5.93;2.87;;;;;;;;;;5041812;28;20676;-51
2022/10/08 05:22:15;;;;;;;4.70;2.60;;;;;;;;;;5043293;28;20290;-54
2022/10/08 05:24:42;;;;;;;4.60;2.50;;;;;;;;;;5047815;28;20293;-52
2022/10/08 05:27:08;;;;;;;5.17;2.80;;;;;;;;;;5048951;28;20203;-56
2022/10/08 05:29:35;;;;;;;4.90;2.60;;;;;;;;;;5039210;28;20245;-57
2022/10/08 05:32:01;;;;;;;5.17;2.63;;;;;;;;;;5042632;28;20215;-51
2022/10/08 05:34:27;;;;;;;4.77;2.53;;;;;;;;;;5038738;28;20258;-52
2022/10/08 05:36:54;;;;;;;4.13;2.40;;;;;;;;;;5039035;28;20227;-52
2022/10/08 05:39:20;;;;;;;6.23;2.77;;;;;;;;;;5044007;28;20226;-55
2022/10/08 05:41:46;;;;;;;5.43;2.67;;;;;;;;;;5049623;28;20248;-53
2022/10/08 05:44:13;;;;;;;3.60;2.53;;;;;;;;;;5048605;28;20253;-53
2022/10/08 05:46:39;;;;;;;5.47;3.10;;;;;;;;;;5043179;28;20258;-52
2022/10/08 05:49:07;;;;;;;5.90;2.60;;;;;;;;;;5041665;28;20825;-52
2022/10/08 05:51:35;;;;;;;4.27;2.37;;;;;;;;;;5040372;28;20199;-53
2022/10/08 05:54:01;;;;;;;4.00;2.40;;;;;;;;;;5041540;28;20268;-51
2022/10/08 05:56:28;;;;;;;8.63;3.03;;;;;;;;;;5045875;28;20256;-52
2022/10/08 05:58:54;;;;;;;3.97;2.13;;;;;;;;;;5044954;28;20199;-57
2022/10/08 06:01:26;;;;;;;3.27;2.07;;;;;;;;;;5042097;28;20665;-54
2022/10/08 06:03:55;;;;;;;4.00;2.57;;;;;;;;;;5043461;28;20271;-55
2022/10/08 06:06:22;;;;;;;5.13;2.53;;;;;;;;;;5044745;28;20261;-51
2022/10/08 06:08:59;;;;;;;4.73;2.40;;;;;;;;;;5046298;28;20254;-56
2022/10/08 06:11:26;;;;;;;3.47;2.20;;;;;;;;;;5040114;28;20234;-51
2022/10/08 06:13:57;;;;;;;3.87;2.30;;;;;;;;;;5040207;28;20219;-56
2022/10/08 06:16:24;;;;;;;3.57;2.20;;;;;;;;;;5024935;28;20237;-53
2022/10/08 06:18:51;;;;;;;5.73;3.10;;;;;;;;;;5038347;28;20257;-52
2022/10/08 06:21:22;;;;;;;3.17;2.07;;;;;;;;;;5042394;28;20321;-54
2022/10/08 06:23:51;;;;;;;4.47;2.33;;;;;;;;;;5045800;28;20261;-52
2022/10/08 06:26:18;;;;;;;4.70;2.50;;;;;;;;;;5039556;28;20247;-55
2022/10/08 06:28:44;;;;;;;3.77;2.00;;;;;;;;;;5042270;28;20249;-52
2022/10/08 06:31:11;;;;;;;4.00;2.10;;;;;;;;;;5039004;28;20230;-54
2022/10/08 06:33:38;;;;;;;3.60;2.17;;;;;;;;;;5042253;28;20541;-55
2022/10/08 06:36:17;;;;;;;3.93;2.50;;;;;;;;;;5038148;28;20321;-56
2022/10/08 06:38:51;;;;;;;3.63;2.30;;;;;;;;;;5044925;28;20226;-52
2022/10/08 06:41:18;;;;;;;4.37;2.20;;;;;;;;;;5045009;28;20249;-53
2022/10/08 06:43:44;;;;;;;3.50;2.30;;;;;;;;;;5038293;28;20224;-57
2022/10/08 06:46:10;;;;;;;3.50;2.13;;;;;;;;;;5030305;28;20253;-57
2022/10/08 06:48:37;;;;;;;2.67;1.97;;;;;;;;;;5043942;28;20273;-56
2022/10/08 06:51:11;;;;;;;4.17;2.37;;;;;;;;;;5032037;28;20674;-52
2022/10/08 06:53:38;;;;;;;3.03;2.07;;;;;;;;;;5037751;28;20230;-54
2022/10/08 06:56:06;;;;;;;4.37;2.20;;;;;;;;;;5045505;28;20213;-54
2022/10/08 06:58:39;;;;;;;3.43;2.60;;;;;;;;;;5042404;28;20734;-57
2022/10/08 07:01:14;;;;;;;3.33;2.50;;;;;;;;;;5040787;28;20286;-55
2022/10/08 07:03:40;;;;;;;3.57;2.27;;;;;;;;;;5041375;28;20267;-55
2022/10/08 07:06:08;;;;;;;3.50;2.13;;;;;;;;;;5045519;28;20198;-55
2022/10/08 07:08:35;;;;;;;2.90;2.20;;;;;;;;;;5039059;28;20703;-55
2022/10/08 07:11:06;;;;;;;2.90;1.90;;;;;;;;;;5040850;28;20235;-56
2022/10/08 07:13:33;;;;;;;3.50;1.97;;;;;;;;;;5043930;28;20302;-54
2022/10/08 07:16:02;;;;;;;3.23;2.20;;;;;;;;;;5043983;28;20203;-57
2022/10/08 07:18:29;;;;;;;3.23;1.90;;;;;;;;;;5057142;28;20286;-55
2022/10/08 07:20:56;;;;;;;2.07;1.73;;;;;;;;;;5049608;28;20286;-55
2022/10/08 07:23:23;;;;;;;3.10;2.20;;;;;;;;;;5044580;28;20247;-55
2022/10/08 07:25:57;;;;;;;3.43;2.27;;;;;;;;;;5047031;28;20234;-57
2022/10/08 07:28:25;;;;;;;3.90;2.00;;;;;;;;;;5040043;28;20218;-53
2022/10/08 07:30:52;;;;;;;3.83;1.90;;;;;;;;;;5049130;28;20645;-55
2022/10/08 07:33:18;;;;;;;3.90;2.27;;;;;;;;;;5047511;28;20631;-54
2022/10/08 07:35:44;;;;;;;3.63;2.37;;;;;;;;;;5045144;28;20643;-53
2022/10/08 07:38:11;;;;;;;3.80;2.40;;;;;;;;;;5056434;28;20215;-54
2022/10/08 07:40:37;;;;;;;3.73;2.20;;;;;;;;;;5046858;28;20226;-55
2022/10/08 07:43:04;;;;;;;3.40;2.20;;;;;;;;;;5047356;28;20223;-55
2022/10/08 07:45:30;;;;;;;4.33;2.30;;;;;;;;;;5043068;28;20705;-51
2022/10/08 07:47:56;;;;;;;3.90;2.13;;;;;;;;;;5051262;28;20663;-52
2022/10/08 07:50:23;;;;;;;2.78;2.10;;;;;;;;;;5045279;28;20203;-52
2022/10/08 07:52:49;;;;;;;3.00;2.05;;;;;;;;;;5048191;28;20233;-55
2022/10/08 07:55:16;;;;;;;4.07;2.10;;;;;;;;;;5047033;28;20679;-52
2022/10/08 07:57:42;;;;;;;3.30;2.00;;;;;;;;;;5050123;28;20252;-55
2022/10/08 08:00:09;;;;;;;2.70;1.75;;;;;;;;;;5037517;28;20661;-57
2022/10/08 08:02:35;;;;;;;5.07;1.98;;;;;;;;;;5046896;28;20306;-56
2022/10/08 08:05:02;;;;;;;3.45;2.00;;;;;;;;;;5048428;28;20280;-51
2022/10/08 08:07:28;;;;;;;3.30;2.08;;;;;;;;;;5047102;28;20206;-55
2022/10/08 08:09:54;;;;;;;2.72;1.90;;;;;;;;;;5043576;28;20313;-55
2022/10/08 08:12:21;;;;;;;3.45;1.83;;;;;;;;;;5044648;28;20222;-54
2022/10/08 08:14:47;;;;;;;4.03;1.92;;;;;;;;;;5052745;28;20206;-55
2022/10/08 08:17:13;;;;;;;5.28;2.10;;;;;;;;;;5047969;28;20242;-54
2022/10/08 08:19:40;;;;;;;3.35;1.90;;;;;;;;;;5050714;28;20278;-56
2022/10/08 08:22:06;;;;;;;2.83;1.98;;;;;;;;;;5050232;28;20526;-51
2022/10/08 08:24:33;;;;;;;5.07;2.22;;;;;;;;;;5043532;28;20641;-53
2022/10/08 08:26:59;;;;;;;3.05;1.92;;;;;;;;;;5045066;28;20289;-52
2022/10/08 08:29:26;;;;;;;5.18;2.20;;;;;;;;;;5043000;28;20219;-52
2022/10/08 08:31:52;;;;;;;2.45;1.85;;;;;;;;;;5041210;28;20242;-55
2022/10/08 08:34:20;;;;;;;1.88;1.52;;;;;;;;;;5050002;28;20226;-53
2022/10/08 08:36:48;;;;;;;2.58;1.88;;;;;;;;;;5042089;28;20230;-55
2022/10/08 08:39:20;;;;;;;2.67;1.67;;;;;;;;;;5044604;28;20233;-51
2022/10/08 08:41:49;;;;;;;1.83;1.45;;;;;;;;;;5041119;28;20274;-54
2022/10/08 08:44:16;;;;;;;2.70;1.70;;;;;;;;;;5049815;28;20293;-53
2022/10/08 08:46:47;;;;;;;2.47;1.60;;;;;;;;;;5035957;28;20242;-52
2022/10/08 08:49:20;;;;;;;3.30;2.10;;;;;;;;;;5055646;28;20211;-56
2022/10/08 08:51:46;;;;;;;2.55;1.48;;;;;;;;;;5046033;28;20683;-56
2022/10/08 08:54:13;;;;;;;2.25;1.75;;;;;;;;;;5047187;28;20253;-52
2022/10/08 08:56:39;;;;;;;2.58;1.77;;;;;;;;;;5047258;28;20211;-52
2022/10/08 08:59:26;;;;;;;2.90;2.03;;;;;;;;;;5045413;28;20256;-54
2022/10/08 09:01:56;;;;;;;3.17;1.85;;;;;;;;;;5051374;28;20242;-54
2022/10/08 09:04:35;;;;;;;2.97;2.00;;;;;;;;;;5037108;28;20624;-54
2022/10/08 09:07:05;;;;;;;2.05;1.48;;;;;;;;;;5049580;28;20233;-52
2022/10/08 09:09:44;;;;;;;2.63;1.90;;;;;;;;;;5045053;28;20309;-51
2022/10/08 09:12:19;;;;;;;2.72;1.80;;;;;;;;;;5037494;28;20616;-56
2022/10/08 09:14:54;;;;;;;2.20;1.70;;;;;;;;;;5036659;28;20198;-55
2022/10/08 09:17:29;;;;;;;3.45;2.08;;;;;;;;;;5046373;28;20230;-56
2022/10/08 09:19:55;;;;;;;2.70;1.52;;;;;;;;;;5051352;28;20344;-51
2022/10/08 09:22:24;;;;;;;3.45;1.90;;;;;;;;;;5046193;28;20231;-51
2022/10/08 09:24:57;;;;;;;3.08;1.80;;;;;;;;;;5038375;28;20534;-54
2022/10/08 09:27:23;;;;;;;3.42;1.85;;;;;;;;;;5045423;28;20234;-52
2022/10/08 09:29:50;;;;;;;2.45;1.77;;;;;;;;;;5042460;28;20223;-53
2022/10/08 09:32:18;;;;;;;3.03;1.50;;;;;;;;;;5046658;28;20230;-52
2022/10/08 09:34:45;;;;;;;2.40;1.60;;;;;;;;;;5046406;28;20659;-51
2022/10/08 09:37:20;;;;;;;3.70;1.60;;;;;;;;;;5043748;28;20194;-52
2022/10/08 09:40:07;;;;;;;2.95;1.60;;;;;;;;;;5049645;28;20225;-53
2022/10/08 09:42:33;;;;;;;3.45;1.80;;;;;;;;;;5054719;28;20246;-53
2022/10/08 09:45:02;;;;;;;2.40;1.52;;;;;;;;;;5045882;28;20661;-54
2022/10/08 09:47:29;;;;;;;2.92;1.58;;;;;;;;;;5054976;28;20241;-51
2022/10/08 09:50:08;;;;;;;2.47;1.70;;;;;;;;;;5044495;28;20565;-52
2022/10/08 09:52:35;;;;;;;3.47;1.75;;;;;;;;;;5044150;28;20239;-53
2022/10/08 09:55:07;;;;;;;2.78;1.52;;;;;;;;;;5022077;28;20670;-52
2022/10/08 09:57:40;;;;;;;2.50;1.80;;;;;;;;;;5049852;28;20278;-55
2022/10/08 10:00:28;;;;;;;3.63;1.77;;;;;;;;;;5048138;28;20624;-54
2022/10/08 10:02:55;;;;;;;2.00;1.52;;;;;;;;;;5043966;28;20769;-54
2022/10/08 10:05:24;;;;;;;2.95;1.70;;;;;;;;;;5045645;28;20230;-55
2022/10/08 10:07:51;;;;;;;2.38;1.40;;;;;;;;;;5047211;28;20194;-54
2022/10/08 10:10:23;;;;;;;3.33;1.50;;;;;;;;;;5042809;28;20315;-56
2022/10/08 10:12:55;;;;;;;2.40;1.50;;;;;;;;;;5043673;28;20310;-54
2022/10/08 10:15:33;;;;;;;2.38;1.52;;;;;;;;;;5047266;28;20253;-53
2022/10/08 10:18:01;;;;;;;2.80;1.50;;;;;;;;;;5042865;28;20285;-51
2022/10/08 10:20:38;;;;;;;2.22;1.55;;;;;;;;;;5044861;28;20282;-51
2022/10/08 10:23:11;;;;;;;2.25;1.40;;;;;;;;;;5047239;28;20652;-55
2022/10/08 10:25:47;;;;;;;2.08;1.55;;;;;;;;;;5047927;28;20243;-55
2022/10/08 10:28:17;;;;;;;2.00;1.50;;;;;;;;;;5040592;28;20241;-56
2022/10/08 10:30:53;;;;;;;2.30;1.60;;;;;;;;;;5036719;28;20218;-62
2022/10/08 10:33:23;;;;;;;3.83;2.00;;;;;;;;;;5045015;28;20221;-62
2022/10/08 10:35:53;;;;;;;3.05;1.90;;;;;;;;;;5038973;28;20675;-60
2022/10/08 10:38:26;;;;;;;2.28;1.40;;;;;;;;;;5038721;28;20616;-59
2022/10/08 10:41:17;;;;;;;2.63;1.48;;;;;;;;;;5033143;28;20187;-56
2022/10/08 10:43:53;;;;;;;3.65;1.42;;;;;;;;;;5045366;28;20233;-56
2022/10/08 10:46:37;;;;;;;2.80;1.73;;;;;;;;;;5043246;28;20237;-54
2022/10/08 10:49:12;;;;;;;2.20;1.65;;;;;;;;;;5039674;28;20563;-51
2022/10/08 10:52:10;;;;;;;2.70;1.70;;;;;;;;;;5045307;28;20234;-52
2022/10/08 10:55:07;;;;;;;2.55;1.80;;;;;;;;;;5035728;28;20235;-53
2022/10/08 10:57:55;;;;;;;2.35;1.67;;;;;;;;;;5042549;28;20277;-54
2022/10/08 11:00:29;;;;;;;2.03;1.63;;;;;;;;;;5036760;28;20646;-54
2022/10/08 11:03:27;;;;;;;2.88;1.83;;;;;;;;;;5038068;28;20309;-53
2022/10/08 11:06:21;;;;;;;2.85;1.60;;;;;;;;;;5038371;28;20229;-52
2022/10/08 11:09:08;;;;;;;3.38;1.65;;;;;;;;;;5026775;28;20229;-54
2022/10/08 11:11:37;;;;;;;2.50;1.65;;;;;;;;;;5044303;28;20307;-51
2022/10/08 11:14:27;;;;;;;1.88;1.60;;;;;;;;;;5046089;28;20270;-53
2022/10/08 11:17:08;;;;;;;2.67;1.52;;;;;;;;;;5047206;28;20314;-51
2022/10/08 11:19:34;;;;;;;2.20;1.70;;;;;;;;;;5040452;28;20195;-52
2022/10/08 11:22:23;;;;;;;2.72;1.80;;;;;;;;;;5044556;28;20237;-51
2022/10/08 11:24:56;;;;;;;2.90;1.40;;;;;;;;;;5048065;28;20226;-52
2022/10/08 11:27:34;;;;;;;2.50;1.52;;;;;;;;;;5050152;28;20695;-53
2022/10/08 11:30:17;;;;;;;2.33;1.65;;;;;;;;;;5034673;28;20242;-49
2022/10/08 11:32:49;;;;;;;2.08;1.50;;;;;;;;;;5035600;28;20385;-52
2022/10/08 11:35:33;;;;;;;2.58;1.70;;;;;;;;;;5045633;28;20203;-49
2022/10/08 11:38:05;;;;;;;2.83;1.60;;;;;;;;;;5046363;28;20687;-48
2022/10/08 11:40:38;;;;;;;2.47;1.70;;;;;;;;;;5043390;28;20234;-52
2022/10/08 11:43:31;;;;;;;2.45;1.95;;;;;;;;;;5042594;28;20650;-47
2022/10/08 11:46:29;;;;;;;3.90;2.05;;;;;;;;;;5048401;28;20290;-50
2022/10/08 11:48:57;;;;;;;2.50;1.75;;;;;;;;;;5043459;28;20207;-57
2022/10/08 11:51:23;;;;;;;3.15;1.70;;;;;;;;;;5041219;28;20290;-52
2022/10/08 11:54:04;;;;;;;3.05;1.80;;;;;;;;;;5046325;28;20258;-51
2022/10/08 11:56:33;;;;;;;2.78;1.88;;;;;;;;;;5039673;28;20231;-49
2022/10/08 11:59:06;;;;;;;2.63;1.65;;;;;;;;;;5043568;28;20226;-52
2022/10/08 12:01:33;;;;;;;2.67;1.65;;;;;;;;;;5044003;28;20290;-49
2022/10/08 12:04:10;;;;;;;2.63;1.80;;;;;;;;;;5042692;28;20247;-49
2022/10/08 12:06:37;;;;;;;3.38;1.55;;;;;;;;;;5049316;28;20257;-50
2022/10/08 12:09:05;;;;;;;2.75;1.80;;;;;;;;;;5046418;28;20222;-49
2022/10/08 12:11:31;;;;;;;2.75;1.60;;;;;;;;;;5045213;28;20285;-51
2022/10/08 12:14:10;;;;;;;2.20;1.70;;;;;;;;;;5045185;28;20280;-52
2022/10/08 12:16:54;;;;;;;2.78;1.75;;;;;;;;;;5038007;28;20204;-49
2022/10/08 12:19:33;;;;;;;2.40;1.65;;;;;;;;;;5046062;28;20225;-51
2022/10/08 12:22:05;;;;;;;2.20;1.70;;;;;;;;;;5048956;28;20207;-50
2022/10/08 12:24:37;;;;;;;2.95;1.67;;;;;;;;;;5042906;28;20317;-49
2022/10/08 12:27:16;;;;;;;2.35;1.75;;;;;;;;;;5042658;28;20297;-49
2022/10/08 12:29:56;;;;;;;2.20;1.52;;;;;;;;;;5042938;28;20246;-50
2022/10/08 12:32:25;;;;;;;2.67;1.80;;;;;;;;;;5037899;28;20674;-50
2022/10/08 12:34:51;;;;;;;2.42;1.70;;;;;;;;;;5045655;28;20232;-50
2022/10/08 12:37:36;;;;;;;1.80;1.50;;;;;;;;;;5039594;28;20223;-49
2022/10/08 12:40:11;;;;;;;1.98;1.27;;;;;;;;;;5039279;28;20219;-52
2022/10/08 12:42:39;;;;;;;2.80;1.60;;;;;;;;;;5042590;28;20238;-54
2022/10/08 12:45:24;;;;;;;1.88;1.50;;;;;;;;;;5044546;28;20202;-52
2022/10/08 12:48:02;;;;;;;2.65;1.60;;;;;;;;;;5044033;28;20219;-51
2022/10/08 12:50:55;;;;;;;2.45;1.50;;;;;;;;;;5047439;28;20375;-53
2022/10/08 12:53:21;;;;;;;3.35;1.80;;;;;;;;;;5046853;28;20647;-50
2022/10/08 12:55:51;;;;;;;2.90;1.42;;;;;;;;;;5044440;28;20247;-49
2022/10/08 12:58:21;;;;;;;2.17;1.50;;;;;;;;;;5028249;28;21200;-49
2022/10/08 13:00:59;;;;;;;2.42;1.60;;;;;;;;;;5042908;28;20226;-52
2022/10/08 13:03:26;;;;;;;2.40;1.55;;;;;;;;;;5038928;28;20219;-50
2022/10/08 13:05:54;;;;;;;1.85;1.60;;;;;;;;;;5040605;28;20717;-49
2022/10/08 13:08:29;;;;;;;2.17;1.52;;;;;;;;;;5044791;28;20229;-49
2022/10/08 13:10:57;;;;;;;2.00;1.50;;;;;;;;;;5044880;28;20225;-50
2022/10/08 13:13:38;;;;;;;2.70;1.60;;;;;;;;;;5036486;28;20246;-51
2022/10/08 13:16:08;;;;;;;2.03;1.48;;;;;;;;;;5046773;28;20309;-49
2022/10/08 13:18:35;;;;;;;2.72;1.80;;;;;;;;;;5042395;28;20199;-50
2022/10/08 13:21:22;;;;;;;1.95;1.58;;;;;;;;;;5040464;28;20273;-50
2022/10/08 13:23:48;;;;;;;2.45;1.60;;;;;;;;;;5037526;28;20250;-49
2022/10/08 13:26:44;;;;;;;3.35;1.60;;;;;;;;;;5048375;28;20253;-52
2022/10/08 13:29:20;;;;;;;2.05;1.45;;;;;;;;;;5039014;28;20207;-51
2022/10/08 13:31:54;;;;;;;2.70;1.80;;;;;;;;;;5042417;28;20255;-49
2022/10/08 13:34:22;;;;;;;2.72;1.50;;;;;;;;;;5040308;28;20306;-53
2022/10/08 13:36:54;;;;;;;2.28;1.50;;;;;;;;;;5046977;28;20199;-51
2022/10/08 13:39:26;;;;;;;2.63;1.40;;;;;;;;;;5046801;28;20239;-51
2022/10/08 13:41:58;;;;;;;2.15;1.58;;;;;;;;;;5046437;28;20233;-49
2022/10/08 13:44:25;;;;;;;1.67;1.30;;;;;;;;;;5046304;28;20249;-52
2022/10/08 13:46:53;;;;;;;2.03;1.50;;;;;;;;;;5059315;28;20642;-51
2022/10/08 13:49:25;;;;;;;1.75;1.30;;;;;;;;;;5041848;28;20195;-50
2022/10/08 13:51:52;;;;;;;1.50;1.30;;;;;;;;;;5045034;28;20245;-50
2022/10/08 13:54:21;;;;;;;1.65;1.50;;;;;;;;;;5048280;28;20247;-53
2022/10/08 13:56:48;;;;;;;2.50;1.58;;;;;;;;;;5040698;28;20222;-50
2022/10/08 13:59:15;;;;;;;2.38;1.55;;;;;;;;;;5041809;28;20615;-53
2022/10/08 14:01:41;;;;;;;2.10;1.40;;;;;;;;;;5043694;28;20195;-49
2022/10/08 14:04:08;;;;;;;1.88;1.42;;;;;;;;;;5045931;28;20214;-50
2022/10/08 14:06:35;;;;;;;2.38;1.40;;;;;;;;;;5037516;28;20253;-55
2022/10/08 14:09:02;;;;;;;2.33;1.45;;;;;;;;;;5043054;28;20222;-53
2022/10/08 14:11:29;;;;;;;3.40;1.45;;;;;;;;;;5047112;28;20254;-53
2022/10/08 14:13:56;;;;;;;1.85;1.40;;;;;;;;;;5042697;28;20280;-52
2022/10/08 14:16:22;;;;;;;1.50;1.27;;;;;;;;;;5047419;28;20336;-54
2022/10/08 14:18:48;;;;;;;1.73;1.38;;;;;;;;;;5044865;28;20956;-53
2022/10/08 14:21:15;;;;;;;2.88;1.50;;;;;;;;;;5044804;28;20195;-49
2022/10/08 14:23:42;;;;;;;1.58;1.30;;;;;;;;;;5047342;28;20682;-51
2022/10/08 14:26:11;;;;;;;1.42;1.20;;;;;;;;;;5044347;28;20235;-54
2022/10/08 14:28:38;;;;;;;1.98;1.40;;;;;;;;;;5044842;28;20230;-52
2022/10/08 14:31:05;;;;;;;2.25;1.67;;;;;;;;;;5045875;28;20215;-53
2022/10/08 14:33:31;;;;;;;1.50;1.25;;;;;;;;;;5042963;28;20678;-51
2022/10/08 14:35:58;;;;;;;1.48;1.38;;;;;;;;;;5045555;28;20231;-50
2022/10/08 14:38:24;;;;;;;2.13;1.30;;;;;;;;;;5043720;28;20655;-53
2022/10/08 14:40:50;;;;;;;2.13;1.25;;;;;;;;;;5043712;28;20259;-53
2022/10/08 14:43:17;;;;;;;2.22;1.20;;;;;;;;;;5038649;28;20219;-50
2022/10/08 14:45:43;;;;;;;1.63;1.20;;;;;;;;;;5045988;28;20574;-55
2022/10/08 14:48:09;;;;;;;1.30;1.05;;;;;;;;;;5038917;28;20205;-55
2022/10/08 14:50:36;;;;;;;1.52;1.20;;;;;;;;;;5045248;28;20250;-54
2022/10/08 14:53:02;;;;;;;1.58;1.30;;;;;;;;;;5044239;28;20226;-55
2022/10/08 14:55:29;;;;;;;1.85;1.30;;;;;;;;;;5043162;28;20246;-53
2022/10/08 14:57:55;;;;;;;2.28;1.30;;;;;;;;;;5034851;28;20620;-53
2022/10/08 15:00:22;;;;;;;2.13;1.27;;;;;;;;;;5042879;28;20227;-53
2022/10/08 15:02:48;;;;;;;1.83;1.20;;;;;;;;;;5043072;28;20266;-52
2022/10/08 15:05:15;;;;;;;2.35;1.20;;;;;;;;;;5042804;28;20199;-53